Time;durP1;ratioP1;P1;durP2;ratioP2;P2;SDS_P1;SDS_P2;PMS_P1;PMS_P2;Temp;Humidity;BMP_temperature;BMP_pressure;BME280_temperature;BME280_humidity;BME280_pressure;Samples;Min_cycle;Max_cycle;Signal;HPM_P1;HPM_P2
2023/12/10 00:01:26;;;;;;;2.20;0.82;;;;;;;;;;5085394;28;20375;-79
2023/12/10 00:03:52;;;;;;;2.58;0.80;;;;;;;;;;5076880;28;20480;-79
2023/12/10 00:06:18;;;;;;;2.10;0.70;;;;;;;;;;5087702;28;20374;-79
2023/12/10 00:08:44;;;;;;;1.63;0.63;;;;;;;;;;5092927;28;20386;-79
2023/12/10 00:11:10;;;;;;;3.37;1.00;;;;;;;;;;5078124;28;20379;-79
2023/12/10 00:13:36;;;;;;;2.70;0.80;;;;;;;;;;5097968;28;20378;-79
2023/12/10 00:16:02;;;;;;;3.22;0.95;;;;;;;;;;5097515;28;20404;-79
2023/12/10 00:18:28;;;;;;;4.90;1.00;;;;;;;;;;5097691;28;20406;-79
2023/12/10 00:20:54;;;;;;;3.60;0.98;;;;;;;;;;5079505;28;20750;-79
2023/12/10 00:23:21;;;;;;;4.25;0.88;;;;;;;;;;5096150;28;20386;-79
2023/12/10 00:25:50;;;;;;;3.40;0.98;;;;;;;;;;5097521;28;20729;-79
2023/12/10 00:28:16;;;;;;;2.63;0.77;;;;;;;;;;5077988;28;20433;-79
2023/12/10 00:30:42;;;;;;;2.50;1.10;;;;;;;;;;5076609;28;20471;-79
2023/12/10 00:33:09;;;;;;;4.17;1.20;;;;;;;;;;5095319;28;20458;-79
2023/12/10 00:35:35;;;;;;;3.15;0.93;;;;;;;;;;5092363;28;20384;-79
2023/12/10 00:38:01;;;;;;;3.88;1.00;;;;;;;;;;5078597;28;20415;-79
2023/12/10 00:40:27;;;;;;;4.00;1.17;;;;;;;;;;5097014;28;20426;-79
2023/12/10 00:42:57;;;;;;;4.18;1.20;;;;;;;;;;5087589;28;20375;-79
2023/12/10 00:45:23;;;;;;;4.18;1.27;;;;;;;;;;5075948;28;20847;-79
2023/12/10 00:47:49;;;;;;;4.90;1.27;;;;;;;;;;5089060;28;20410;-79
2023/12/10 00:50:15;;;;;;;7.70;1.63;;;;;;;;;;5087920;28;20384;-79
2023/12/10 00:52:41;;;;;;;2.93;1.30;;;;;;;;;;5086902;28;20471;-79
2023/12/10 00:55:07;;;;;;;3.38;1.30;;;;;;;;;;5085809;28;20381;-79
2023/12/10 00:57:34;;;;;;;5.95;1.65;;;;;;;;;;5088044;28;20380;-79
2023/12/10 01:00:00;;;;;;;8.13;1.83;;;;;;;;;;5092146;28;20410;-79
2023/12/10 01:02:26;;;;;;;4.80;1.42;;;;;;;;;;5090879;28;20377;-79
2023/12/10 01:04:52;;;;;;;3.67;1.08;;;;;;;;;;5081959;28;20861;-79
2023/12/10 01:07:18;;;;;;;4.00;0.90;;;;;;;;;;5096815;28;20406;-79
2023/12/10 01:09:44;;;;;;;4.43;1.20;;;;;;;;;;5095827;28;20393;-79
2023/12/10 01:12:10;;;;;;;3.90;0.90;;;;;;;;;;5096648;28;20383;-79
2023/12/10 01:14:36;;;;;;;3.53;0.90;;;;;;;;;;5088869;28;20387;-79
2023/12/10 01:17:02;;;;;;;2.80;0.90;;;;;;;;;;5076392;28;20388;-79
2023/12/10 01:19:28;;;;;;;3.90;0.95;;;;;;;;;;5088272;28;20402;-79
2023/12/10 01:21:54;;;;;;;2.20;0.90;;;;;;;;;;5093277;28;20378;-79
2023/12/10 01:24:21;;;;;;;3.08;0.90;;;;;;;;;;5076055;28;20378;-79
2023/12/10 01:26:47;;;;;;;4.07;1.02;;;;;;;;;;5078459;28;20434;-79
2023/12/10 01:29:14;;;;;;;5.57;1.25;;;;;;;;;;5096802;28;20413;-79
2023/12/10 01:31:40;;;;;;;6.55;1.55;;;;;;;;;;5075024;28;20413;-79
2023/12/10 01:34:06;;;;;;;5.53;1.63;;;;;;;;;;5072258;28;20725;-79
2023/12/10 01:36:32;;;;;;;6.03;1.23;;;;;;;;;;5092043;28;20855;-79
2023/12/10 01:38:58;;;;;;;12.32;1.85;;;;;;;;;;5096112;28;20432;-79
2023/12/10 01:41:25;;;;;;;13.10;2.33;;;;;;;;;;5095759;28;20382;-79
2023/12/10 01:43:52;;;;;;;10.40;2.08;;;;;;;;;;5095924;28;20676;-79
2023/12/10 01:46:18;;;;;;;9.35;2.20;;;;;;;;;;5093067;28;20829;-79
2023/12/10 01:48:45;;;;;;;10.30;2.33;;;;;;;;;;5091926;28;20498;-79
2023/12/10 01:51:12;;;;;;;13.30;2.80;;;;;;;;;;5079363;28;20366;-79
2023/12/10 01:53:38;;;;;;;11.73;2.50;;;;;;;;;;5076000;28;20470;-79
2023/12/10 01:56:08;;;;;;;13.68;2.97;;;;;;;;;;5095005;28;20382;-79
2023/12/10 01:58:34;;;;;;;14.55;2.63;;;;;;;;;;5092183;28;20372;-79
2023/12/10 02:01:01;;;;;;;11.10;2.60;;;;;;;;;;5075182;28;20443;-79
2023/12/10 02:03:28;;;;;;;11.13;2.58;;;;;;;;;;5075957;28;20857;-79
2023/12/10 02:05:54;;;;;;;11.60;2.72;;;;;;;;;;5075674;28;20838;-79
2023/12/10 02:08:20;;;;;;;14.77;2.90;;;;;;;;;;5085646;28;20395;-79
2023/12/10 02:10:48;;;;;;;13.75;2.92;;;;;;;;;;5091371;28;20721;-79
2023/12/10 02:13:14;;;;;;;11.05;2.50;;;;;;;;;;5095927;28;20401;-79
2023/12/10 02:15:40;;;;;;;13.77;2.53;;;;;;;;;;5081469;28;20388;-79
2023/12/10 02:18:06;;;;;;;10.20;2.50;;;;;;;;;;5087407;28;20417;-79
2023/12/10 02:20:33;;;;;;;9.48;2.40;;;;;;;;;;5095245;28;20406;-79
2023/12/10 02:23:09;;;;;;;13.57;3.28;;;;;;;;;;5095286;28;20830;-79
2023/12/10 02:25:36;;;;;;;9.93;2.20;;;;;;;;;;5075266;28;20483;-79
2023/12/10 02:28:02;;;;;;;16.10;3.28;;;;;;;;;;5075468;28;20379;-79
2023/12/10 02:30:28;;;;;;;14.52;3.22;;;;;;;;;;5080268;28;20381;-79
2023/12/10 02:32:55;;;;;;;12.63;3.67;;;;;;;;;;5095456;28;20386;-78
2023/12/10 02:35:21;;;;;;;15.45;3.65;;;;;;;;;;5093559;28;20382;-79
2023/12/10 02:37:47;;;;;;;17.65;3.63;;;;;;;;;;5073121;28;20384;-78
2023/12/10 02:40:13;;;;;;;23.80;4.43;;;;;;;;;;5075092;28;20463;-79
2023/12/10 02:42:39;;;;;;;20.48;4.63;;;;;;;;;;5084024;28;20405;-79
2023/12/10 02:45:06;;;;;;;16.98;3.47;;;;;;;;;;5095716;28;20378;-78
2023/12/10 02:47:32;;;;;;;22.02;3.83;;;;;;;;;;5094716;28;20539;-79
2023/12/10 02:49:58;;;;;;;19.05;4.10;;;;;;;;;;5088915;28;20384;-79
2023/12/10 02:52:24;;;;;;;20.20;4.00;;;;;;;;;;5080459;28;20436;-79
2023/12/10 02:54:50;;;;;;;22.63;4.22;;;;;;;;;;5090515;28;20386;-78
2023/12/10 02:57:16;;;;;;;19.17;3.67;;;;;;;;;;5075596;28;20382;-79
2023/12/10 02:59:42;;;;;;;19.27;3.95;;;;;;;;;;5075305;28;20402;-79
2023/12/10 03:02:08;;;;;;;21.88;3.83;;;;;;;;;;5075713;28;20380;-79
2023/12/10 03:04:34;;;;;;;19.65;4.35;;;;;;;;;;5075869;28;20453;-79
2023/12/10 03:07:00;;;;;;;15.93;4.00;;;;;;;;;;5075412;28;20380;-79
2023/12/10 03:09:26;;;;;;;21.77;4.00;;;;;;;;;;5075763;28;20382;-79
2023/12/10 03:11:52;;;;;;;17.98;4.15;;;;;;;;;;5075461;28;20727;-79
2023/12/10 03:14:18;;;;;;;22.50;4.18;;;;;;;;;;5075308;28;20376;-79
2023/12/10 03:16:44;;;;;;;21.37;3.43;;;;;;;;;;5074657;28;20423;-79
2023/12/10 03:19:10;;;;;;;17.98;4.32;;;;;;;;;;5075158;28;20415;-79
2023/12/10 03:21:36;;;;;;;20.97;4.20;;;;;;;;;;5074897;28;20387;-79
2023/12/10 03:24:02;;;;;;;19.30;4.38;;;;;;;;;;5074675;28;20367;-79
2023/12/10 03:26:28;;;;;;;20.15;3.95;;;;;;;;;;5074216;28;20861;-79
2023/12/10 03:28:54;;;;;;;19.05;4.30;;;;;;;;;;5075292;28;20453;-79
2023/12/10 03:31:20;;;;;;;13.43;3.38;;;;;;;;;;5075554;28;20467;-79
2023/12/10 03:33:46;;;;;;;25.88;4.50;;;;;;;;;;5078628;28;20733;-79
2023/12/10 03:36:14;;;;;;;22.15;3.97;;;;;;;;;;5078820;28;20434;-78
2023/12/10 03:38:40;;;;;;;14.90;4.07;;;;;;;;;;5078541;28;20857;-79
2023/12/10 03:41:06;;;;;;;18.73;3.70;;;;;;;;;;5079054;28;20384;-79
2023/12/10 03:43:32;;;;;;;19.88;3.88;;;;;;;;;;5078754;28;20380;-79
2023/12/10 03:45:58;;;;;;;23.58;3.85;;;;;;;;;;5078734;28;20368;-79
2023/12/10 03:48:24;;;;;;;20.42;4.20;;;;;;;;;;5078124;28;20411;-79
2023/12/10 03:50:51;;;;;;;15.68;3.38;;;;;;;;;;5078754;28;20384;-79
2023/12/10 03:53:17;;;;;;;17.60;3.83;;;;;;;;;;5078148;28;20422;-79
2023/12/10 03:55:43;;;;;;;16.52;3.58;;;;;;;;;;5079456;28;20374;-79
2023/12/10 03:58:09;;;;;;;13.80;3.57;;;;;;;;;;5078429;28;20465;-79
2023/12/10 04:00:38;;;;;;;17.15;4.00;;;;;;;;;;5078031;28;20445;-79
2023/12/10 04:03:04;;;;;;;19.70;4.07;;;;;;;;;;5078110;28;20403;-79
2023/12/10 04:05:30;;;;;;;19.02;4.30;;;;;;;;;;5078282;28;20379;-78
2023/12/10 04:07:56;;;;;;;17.17;4.32;;;;;;;;;;5078016;28;20371;-79
2023/12/10 04:10:22;;;;;;;19.17;3.88;;;;;;;;;;5078051;28;20757;-78
2023/12/10 04:12:48;;;;;;;20.42;3.75;;;;;;;;;;5078289;28;20411;-79
2023/12/10 04:15:14;;;;;;;22.20;3.92;;;;;;;;;;5078005;28;20392;-78
2023/12/10 04:17:42;;;;;;;15.17;3.60;;;;;;;;;;5077628;28;20372;-79
2023/12/10 04:20:08;;;;;;;17.87;3.63;;;;;;;;;;5077859;28;20408;-79
2023/12/10 04:22:34;;;;;;;18.23;4.15;;;;;;;;;;5077782;28;20398;-78
2023/12/10 04:25:00;;;;;;;16.70;3.67;;;;;;;;;;5077973;28;20400;-78
2023/12/10 04:27:26;;;;;;;15.70;3.40;;;;;;;;;;5077719;28;20376;-79
2023/12/10 04:29:53;;;;;;;14.07;3.00;;;;;;;;;;5077809;28;20379;-78
2023/12/10 04:32:19;;;;;;;12.18;2.83;;;;;;;;;;5070126;28;20782;-78
2023/12/10 04:34:45;;;;;;;21.35;3.55;;;;;;;;;;5057374;28;20374;-78
2023/12/10 04:37:11;;;;;;;17.45;3.53;;;;;;;;;;5057702;28;20416;-78
2023/12/10 04:39:37;;;;;;;18.17;3.30;;;;;;;;;;5057106;28;20421;-78
2023/12/10 04:42:04;;;;;;;19.13;3.67;;;;;;;;;;5057584;28;20910;-79
2023/12/10 04:44:30;;;;;;;16.42;3.45;;;;;;;;;;5057905;28;20476;-78
2023/12/10 04:46:56;;;;;;;10.63;2.93;;;;;;;;;;5056926;28;20479;-78
2023/12/10 04:49:22;;;;;;;14.65;3.45;;;;;;;;;;5057241;28;20437;-78
2023/12/10 04:51:48;;;;;;;14.32;3.30;;;;;;;;;;5057250;28;20381;-78
2023/12/10 04:54:16;;;;;;;13.85;3.47;;;;;;;;;;5056399;28;20467;-78
2023/12/10 04:56:42;;;;;;;12.70;2.83;;;;;;;;;;5060586;28;20674;-78
2023/12/10 04:59:08;;;;;;;13.35;3.28;;;;;;;;;;5077164;28;20481;-78
2023/12/10 05:01:34;;;;;;;14.85;3.08;;;;;;;;;;5077193;28;20380;-79
2023/12/10 05:04:02;;;;;;;17.92;3.20;;;;;;;;;;5077193;28;20423;-78
2023/12/10 05:06:30;;;;;;;14.15;3.58;;;;;;;;;;5076801;28;20375;-78
2023/12/10 05:08:56;;;;;;;17.58;3.20;;;;;;;;;;5077485;28;20371;-78
2023/12/10 05:11:22;;;;;;;17.67;3.00;;;;;;;;;;5076345;28;20376;-78
2023/12/10 05:13:48;;;;;;;15.10;3.20;;;;;;;;;;5077347;28;20383;-78
2023/12/10 05:16:14;;;;;;;12.57;2.70;;;;;;;;;;5077469;28;20849;-78
2023/12/10 05:18:40;;;;;;;13.85;2.92;;;;;;;;;;5076908;28;20858;-78
2023/12/10 05:21:07;;;;;;;14.95;2.92;;;;;;;;;;5076698;28;20453;-78
2023/12/10 05:23:33;;;;;;;17.13;3.30;;;;;;;;;;5076391;28;20388;-78
2023/12/10 05:25:59;;;;;;;15.48;3.20;;;;;;;;;;5070607;28;20406;-78
2023/12/10 05:28:25;;;;;;;10.82;2.70;;;;;;;;;;5058234;28;20412;-78
2023/12/10 05:30:51;;;;;;;18.63;3.53;;;;;;;;;;5070853;28;20397;-78
2023/12/10 05:33:17;;;;;;;16.23;3.42;;;;;;;;;;5076137;28;20462;-78
2023/12/10 05:35:43;;;;;;;11.65;3.22;;;;;;;;;;5076226;28;20385;-78
2023/12/10 05:38:09;;;;;;;13.13;2.92;;;;;;;;;;5075416;28;20429;-78
2023/12/10 05:40:35;;;;;;;12.60;3.08;;;;;;;;;;5069677;28;20482;-78
2023/12/10 05:43:01;;;;;;;18.42;3.00;;;;;;;;;;5079676;28;20402;-78
2023/12/10 05:45:28;;;;;;;11.40;2.60;;;;;;;;;;5084071;28;20841;-78
2023/12/10 05:47:55;;;;;;;14.85;2.75;;;;;;;;;;5085466;28;20402;-78
2023/12/10 05:50:21;;;;;;;10.50;3.20;;;;;;;;;;5085443;28;20394;-78
2023/12/10 05:52:47;;;;;;;13.07;3.00;;;;;;;;;;5086598;28;20378;-78
2023/12/10 05:55:13;;;;;;;15.68;3.10;;;;;;;;;;5085639;28;20812;-78
2023/12/10 05:57:39;;;;;;;10.88;2.95;;;;;;;;;;5086073;28;20386;-78
2023/12/10 06:00:06;;;;;;;20.48;3.72;;;;;;;;;;5082759;28;20411;-78
2023/12/10 06:02:32;;;;;;;12.35;3.05;;;;;;;;;;5092265;28;20856;-78
2023/12/10 06:04:58;;;;;;;12.52;3.05;;;;;;;;;;5078936;28;20836;-78
2023/12/10 06:07:24;;;;;;;13.02;3.17;;;;;;;;;;5093837;28;20377;-78
2023/12/10 06:09:50;;;;;;;13.27;3.27;;;;;;;;;;5075873;28;20371;-78
2023/12/10 06:12:16;;;;;;;16.92;3.15;;;;;;;;;;5068361;28;20410;-80
2023/12/10 06:14:42;;;;;;;12.65;3.20;;;;;;;;;;5052776;28;20383;-79
2023/12/10 06:17:09;;;;;;;10.30;2.88;;;;;;;;;;5082937;28;20457;-80
2023/12/10 06:19:35;;;;;;;13.82;2.70;;;;;;;;;;5089915;28;20407;-80
2023/12/10 06:22:02;;;;;;;12.80;2.83;;;;;;;;;;5067186;28;20825;-79
2023/12/10 06:24:28;;;;;;;11.18;2.63;;;;;;;;;;5068578;28;20376;-79
2023/12/10 06:26:54;;;;;;;13.10;2.65;;;;;;;;;;5066347;28;20386;-79
2023/12/10 06:29:20;;;;;;;11.03;2.50;;;;;;;;;;5064948;28;20399;-80
2023/12/10 06:31:46;;;;;;;8.90;2.78;;;;;;;;;;5076541;28;20853;-80
2023/12/10 06:34:12;;;;;;;9.48;2.55;;;;;;;;;;5077377;28;20795;-80
2023/12/10 06:36:38;;;;;;;13.18;2.95;;;;;;;;;;5084657;28;20469;-80
2023/12/10 06:39:05;;;;;;;10.88;2.47;;;;;;;;;;5068748;28;20427;-80
2023/12/10 06:41:31;;;;;;;10.00;2.78;;;;;;;;;;5066332;28;20459;-79
2023/12/10 06:43:57;;;;;;;12.85;2.83;;;;;;;;;;5071673;28;20381;-79
2023/12/10 06:46:23;;;;;;;14.05;2.80;;;;;;;;;;5068212;28;20379;-79
2023/12/10 06:48:49;;;;;;;14.00;2.70;;;;;;;;;;5067444;28;20869;-80
2023/12/10 06:51:15;;;;;;;11.45;2.67;;;;;;;;;;5067239;28;20448;-79
2023/12/10 06:53:41;;;;;;;10.38;2.67;;;;;;;;;;5060963;28;20408;-79
2023/12/10 06:56:08;;;;;;;11.77;2.70;;;;;;;;;;5064345;28;20376;-79
2023/12/10 06:58:34;;;;;;;11.45;2.50;;;;;;;;;;5071201;28;20380;-80
2023/12/10 07:01:00;;;;;;;10.63;2.67;;;;;;;;;;5085994;28;20743;-80
2023/12/10 07:03:26;;;;;;;9.90;2.20;;;;;;;;;;5081648;28;20384;-80
2023/12/10 07:05:52;;;;;;;8.93;2.55;;;;;;;;;;5088062;28;20862;-80
2023/12/10 07:08:18;;;;;;;11.65;2.72;;;;;;;;;;5063095;28;20390;-80
2023/12/10 07:10:44;;;;;;;12.05;2.63;;;;;;;;;;5045235;28;20963;-80
2023/12/10 07:13:11;;;;;;;11.23;2.90;;;;;;;;;;5085072;28;20430;-80
2023/12/10 07:15:37;;;;;;;12.80;2.53;;;;;;;;;;5085629;28;20414;-79
2023/12/10 07:18:03;;;;;;;14.60;2.60;;;;;;;;;;5094321;28;20378;-80
2023/12/10 07:20:29;;;;;;;9.48;2.22;;;;;;;;;;5082285;28;20419;-80
2023/12/10 07:22:55;;;;;;;12.20;2.55;;;;;;;;;;5075639;28;20783;-79
2023/12/10 07:25:21;;;;;;;12.10;2.42;;;;;;;;;;5075244;28;20455;-79
2023/12/10 07:27:47;;;;;;;8.90;2.60;;;;;;;;;;5079535;28;20401;-79
2023/12/10 07:30:13;;;;;;;8.98;2.35;;;;;;;;;;5074844;28;20464;-79
2023/12/10 07:32:39;;;;;;;11.95;2.70;;;;;;;;;;5064801;28;21002;-79
2023/12/10 07:35:06;;;;;;;11.90;2.50;;;;;;;;;;5078706;28;20406;-79
2023/12/10 07:37:32;;;;;;;10.80;2.53;;;;;;;;;;5094426;28;20374;-80
2023/12/10 07:39:58;;;;;;;9.80;2.53;;;;;;;;;;5074806;28;20827;-80
2023/12/10 07:42:24;;;;;;;12.13;2.67;;;;;;;;;;5093020;28;20374;-80
2023/12/10 07:44:50;;;;;;;11.20;2.58;;;;;;;;;;5079341;28;20391;-80
2023/12/10 07:47:16;;;;;;;8.40;2.40;;;;;;;;;;5080002;28;20743;-80
2023/12/10 07:49:42;;;;;;;11.18;2.60;;;;;;;;;;5074373;28;20412;-80
2023/12/10 07:52:08;;;;;;;12.80;2.70;;;;;;;;;;5075510;28;20383;-81
2023/12/10 07:54:34;;;;;;;14.55;3.13;;;;;;;;;;5095385;28;20370;-80
2023/12/10 07:57:00;;;;;;;14.32;3.17;;;;;;;;;;5078376;28;20385;-80
2023/12/10 07:59:26;;;;;;;10.20;2.75;;;;;;;;;;5074664;28;20486;-80
2023/12/10 08:01:52;;;;;;;13.70;3.10;;;;;;;;;;5087447;28;20944;-80
2023/12/10 08:04:18;;;;;;;9.15;2.80;;;;;;;;;;5095144;28;20446;-80
2023/12/10 08:06:45;;;;;;;10.40;2.90;;;;;;;;;;5077012;28;20390;-80
2023/12/10 08:09:11;;;;;;;10.75;2.45;;;;;;;;;;5091421;28;20437;-79
2023/12/10 08:11:37;;;;;;;10.95;2.85;;;;;;;;;;5074295;28;20380;-79
2023/12/10 08:14:04;;;;;;;12.65;2.22;;;;;;;;;;5090930;28;20410;-80
2023/12/10 08:16:30;;;;;;;11.05;2.85;;;;;;;;;;5068175;28;20438;-80
2023/12/10 08:19:00;;;;;;;9.57;2.35;;;;;;;;;;5067501;28;20472;-80
2023/12/10 08:21:26;;;;;;;14.35;2.88;;;;;;;;;;5073975;28;20384;-79
2023/12/10 08:23:52;;;;;;;9.50;2.72;;;;;;;;;;5089375;28;20376;-79
2023/12/10 08:26:18;;;;;;;10.70;2.70;;;;;;;;;;5078207;28;20385;-79
2023/12/10 08:28:44;;;;;;;11.47;2.73;;;;;;;;;;5081402;28;20914;-80
2023/12/10 08:31:10;;;;;;;9.00;2.10;;;;;;;;;;5078279;28;20387;-80
2023/12/10 08:33:36;;;;;;;13.82;2.80;;;;;;;;;;5083983;28;20389;-80
2023/12/10 08:36:03;;;;;;;13.75;3.42;;;;;;;;;;5077453;28;20543;-80
2023/12/10 08:38:29;;;;;;;12.90;3.05;;;;;;;;;;5087561;28;20441;-79
2023/12/10 08:40:55;;;;;;;13.82;3.15;;;;;;;;;;5083483;28;20811;-80
2023/12/10 08:43:21;;;;;;;14.85;3.20;;;;;;;;;;5079802;28;20383;-79
2023/12/10 08:45:47;;;;;;;11.97;3.00;;;;;;;;;;5087482;28;20381;-79
2023/12/10 08:48:14;;;;;;;9.77;2.92;;;;;;;;;;5097189;28;20398;-80
2023/12/10 08:50:40;;;;;;;11.75;2.20;;;;;;;;;;5095281;28;20381;-81
2023/12/10 08:53:06;;;;;;;12.10;2.50;;;;;;;;;;5098436;28;20374;-81
2023/12/10 08:55:32;;;;;;;15.00;2.80;;;;;;;;;;5098048;28;20475;-81
2023/12/10 08:57:58;;;;;;;13.30;3.13;;;;;;;;;;5098834;28;20389;-81
2023/12/10 09:00:24;;;;;;;11.93;2.60;;;;;;;;;;5098629;28;20397;-81
2023/12/10 09:02:50;;;;;;;14.48;3.13;;;;;;;;;;5098175;28;20877;-81
2023/12/10 09:05:16;;;;;;;10.52;2.85;;;;;;;;;;5098898;28;20389;-81
2023/12/10 09:07:42;;;;;;;15.85;3.40;;;;;;;;;;5098326;28;20848;-81
2023/12/10 09:10:08;;;;;;;9.63;3.08;;;;;;;;;;5098293;28;20393;-81
2023/12/10 09:12:34;;;;;;;10.10;2.80;;;;;;;;;;5098353;28;20385;-81
2023/12/10 09:15:00;;;;;;;10.82;2.75;;;;;;;;;;5098482;28;20856;-81
2023/12/10 09:17:26;;;;;;;10.40;2.38;;;;;;;;;;5098122;28;20382;-81
2023/12/10 09:19:52;;;;;;;9.45;2.30;;;;;;;;;;5098060;28;20465;-81
2023/12/10 09:22:18;;;;;;;11.05;2.55;;;;;;;;;;5098813;28;20421;-81
2023/12/10 09:24:44;;;;;;;8.57;2.85;;;;;;;;;;5098594;28;20735;-81
2023/12/10 09:27:10;;;;;;;9.55;2.33;;;;;;;;;;5097933;28;20419;-81
2023/12/10 09:29:41;;;;;;;8.37;2.27;;;;;;;;;;5097245;28;20414;-81
2023/12/10 09:32:07;;;;;;;11.55;2.50;;;;;;;;;;5098219;28;20457;-81
2023/12/10 09:34:33;;;;;;;9.30;2.38;;;;;;;;;;5098013;28;20414;-81
2023/12/10 09:37:00;;;;;;;9.53;2.60;;;;;;;;;;5098088;28;20839;-81
2023/12/10 09:39:26;;;;;;;8.88;2.70;;;;;;;;;;5097735;28;20962;-81
2023/12/10 09:41:53;;;;;;;10.00;2.58;;;;;;;;;;5097554;28;20461;-81
2023/12/10 09:44:19;;;;;;;8.70;2.25;;;;;;;;;;5097728;28;20386;-81
2023/12/10 09:46:45;;;;;;;9.67;2.33;;;;;;;;;;5097484;28;20488;-81
2023/12/10 09:49:11;;;;;;;11.10;2.33;;;;;;;;;;5078035;28;20390;-81
2023/12/10 09:51:37;;;;;;;10.43;2.30;;;;;;;;;;5077179;28;20376;-81
2023/12/10 09:54:03;;;;;;;11.13;2.33;;;;;;;;;;5077189;28;20383;-81
2023/12/10 09:56:29;;;;;;;8.75;2.53;;;;;;;;;;5076005;28;20387;-81
2023/12/10 09:58:55;;;;;;;9.95;2.67;;;;;;;;;;5076639;28;20383;-81
2023/12/10 10:01:21;;;;;;;12.73;2.55;;;;;;;;;;5077108;28;20876;-81
2023/12/10 10:03:47;;;;;;;8.30;2.27;;;;;;;;;;5076850;28;20388;-81
2023/12/10 10:06:13;;;;;;;11.90;2.33;;;;;;;;;;5076774;28;20395;-81
2023/12/10 10:08:39;;;;;;;7.32;2.50;;;;;;;;;;5076980;28;20384;-81
2023/12/10 10:11:05;;;;;;;7.80;2.08;;;;;;;;;;5076578;28;20401;-81
2023/12/10 10:13:31;;;;;;;10.20;2.22;;;;;;;;;;5077090;28;20378;-81
2023/12/10 10:15:57;;;;;;;10.07;2.38;;;;;;;;;;5076730;28;20383;-81
2023/12/10 10:18:26;;;;;;;8.13;2.33;;;;;;;;;;5076157;28;20779;-81
2023/12/10 10:20:52;;;;;;;9.48;2.53;;;;;;;;;;5077241;28;20765;-81
2023/12/10 10:23:18;;;;;;;10.43;2.60;;;;;;;;;;5076706;28;20376;-81
2023/12/10 10:25:45;;;;;;;9.98;3.03;;;;;;;;;;5076685;28;20753;-81
2023/12/10 10:28:11;;;;;;;10.23;2.40;;;;;;;;;;5076348;28;20379;-81
2023/12/10 10:30:37;;;;;;;8.90;2.47;;;;;;;;;;5076513;28;20938;-81
2023/12/10 10:33:03;;;;;;;12.27;2.70;;;;;;;;;;5076407;28;20772;-81
2023/12/10 10:35:29;;;;;;;12.02;3.00;;;;;;;;;;5076618;28;20387;-81
2023/12/10 10:37:55;;;;;;;12.25;2.83;;;;;;;;;;5076161;28;20387;-81
2023/12/10 10:40:22;;;;;;;8.55;2.50;;;;;;;;;;5075897;28;20429;-81
2023/12/10 10:42:48;;;;;;;9.95;2.83;;;;;;;;;;5076129;28;20745;-81
2023/12/10 10:45:14;;;;;;;9.13;2.10;;;;;;;;;;5076634;28;20372;-81
2023/12/10 10:47:40;;;;;;;8.07;2.50;;;;;;;;;;5058307;28;20764;-81
2023/12/10 10:50:07;;;;;;;9.48;2.25;;;;;;;;;;5056163;28;20381;-81
2023/12/10 10:52:34;;;;;;;10.07;2.65;;;;;;;;;;5055853;28;20477;-81
2023/12/10 10:55:02;;;;;;;10.90;2.58;;;;;;;;;;5056464;28;20389;-81
2023/12/10 10:57:29;;;;;;;11.52;3.00;;;;;;;;;;5055988;28;20739;-81
2023/12/10 10:59:55;;;;;;;10.00;2.70;;;;;;;;;;5055677;28;20883;-81
2023/12/10 11:02:21;;;;;;;10.93;3.60;;;;;;;;;;5056180;28;20381;-81
2023/12/10 11:04:48;;;;;;;10.65;3.00;;;;;;;;;;5056227;28;20499;-81
2023/12/10 11:07:15;;;;;;;13.48;3.10;;;;;;;;;;5055895;28;20374;-81
2023/12/10 11:09:54;;;;;;;7.13;3.08;;;;;;;;;;5056221;28;20476;-81
2023/12/10 11:12:44;;;;;;;9.82;3.50;;;;;;;;;;5055671;28;20880;-81
2023/12/10 11:15:16;;;;;;;13.02;2.95;;;;;;;;;;5043824;28;20943;-81
2023/12/10 11:18:09;;;;;;;11.48;3.08;;;;;;;;;;5055650;28;20386;-81
2023/12/10 11:20:39;;;;;;;7.97;2.88;;;;;;;;;;5051275;28;20917;-81
2023/12/10 11:23:06;;;;;;;9.30;2.90;;;;;;;;;;5055310;28;20390;-81
2023/12/10 11:25:32;;;;;;;9.80;2.90;;;;;;;;;;5056081;28;20771;-81
2023/12/10 11:27:59;;;;;;;11.82;2.78;;;;;;;;;;5055772;28;20384;-81
2023/12/10 11:30:26;;;;;;;8.75;2.33;;;;;;;;;;5055910;28;20381;-82
2023/12/10 11:32:52;;;;;;;7.70;2.63;;;;;;;;;;5055932;28;20381;-82
2023/12/10 11:35:18;;;;;;;11.73;2.92;;;;;;;;;;5055720;28;20385;-82
2023/12/10 11:37:44;;;;;;;8.73;2.78;;;;;;;;;;5056058;28;20942;-82
2023/12/10 11:40:10;;;;;;;9.18;2.83;;;;;;;;;;5055469;28;20448;-81
2023/12/10 11:42:37;;;;;;;13.30;3.45;;;;;;;;;;5055126;28;20381;-81
2023/12/10 11:45:06;;;;;;;10.88;2.90;;;;;;;;;;5055947;28;20374;-81
2023/12/10 11:47:32;;;;;;;11.43;3.23;;;;;;;;;;5058886;28;20508;-81
2023/12/10 11:49:58;;;;;;;11.50;3.50;;;;;;;;;;5075143;28;20383;-80
2023/12/10 11:52:24;;;;;;;7.75;2.78;;;;;;;;;;5074601;28;20390;-81
2023/12/10 11:54:50;;;;;;;11.45;3.08;;;;;;;;;;5087232;28;20387;-80
2023/12/10 11:57:16;;;;;;;12.05;3.00;;;;;;;;;;5089582;28;20380;-80
2023/12/10 11:59:46;;;;;;;10.25;2.97;;;;;;;;;;5079039;28;20404;-80
2023/12/10 12:02:14;;;;;;;8.20;2.88;;;;;;;;;;5080628;28;20391;-80
2023/12/10 12:04:40;;;;;;;9.13;2.53;;;;;;;;;;5080191;28;20867;-80
2023/12/10 12:07:07;;;;;;;11.93;2.78;;;;;;;;;;5059105;28;20838;-80
2023/12/10 12:09:33;;;;;;;10.43;2.72;;;;;;;;;;5065068;28;21929;-80
2023/12/10 12:11:59;;;;;;;10.38;2.55;;;;;;;;;;5065890;28;20394;-80
2023/12/10 12:14:26;;;;;;;10.43;2.70;;;;;;;;;;5063749;28;20419;-81
2023/12/10 12:16:52;;;;;;;8.02;2.50;;;;;;;;;;5069465;28;20844;-80
2023/12/10 12:19:25;;;;;;;11.07;2.95;;;;;;;;;;5069418;28;20396;-80
2023/12/10 12:21:51;;;;;;;10.05;2.72;;;;;;;;;;5070027;28;20454;-80
2023/12/10 12:24:17;;;;;;;7.55;2.72;;;;;;;;;;5067468;28;20381;-80
2023/12/10 12:26:43;;;;;;;9.30;2.63;;;;;;;;;;5070777;28;20380;-80
2023/12/10 12:29:09;;;;;;;11.13;2.75;;;;;;;;;;5068776;28;20377;-80
2023/12/10 12:31:35;;;;;;;9.32;3.10;;;;;;;;;;5066856;28;20380;-80
2023/12/10 12:34:01;;;;;;;10.25;2.72;;;;;;;;;;5065577;28;20373;-80
2023/12/10 12:36:27;;;;;;;10.30;2.75;;;;;;;;;;5062151;28;20497;-80
2023/12/10 12:38:53;;;;;;;9.73;2.80;;;;;;;;;;5067776;28;20445;-80
2023/12/10 12:41:19;;;;;;;10.30;2.60;;;;;;;;;;5067510;28;20518;-80
2023/12/10 12:43:45;;;;;;;7.65;3.05;;;;;;;;;;5065264;28;20904;-80
2023/12/10 12:46:14;;;;;;;11.27;2.50;;;;;;;;;;5068085;28;20397;-80
2023/12/10 12:48:40;;;;;;;8.90;2.50;;;;;;;;;;5060816;28;20414;-80
2023/12/10 12:51:06;;;;;;;11.52;2.65;;;;;;;;;;5045683;28;20390;-80
2023/12/10 12:53:32;;;;;;;7.45;2.97;;;;;;;;;;5070062;28;20387;-80
2023/12/10 12:55:58;;;;;;;6.90;2.63;;;;;;;;;;5067189;28;20396;-80
2023/12/10 12:58:24;;;;;;;12.00;2.40;;;;;;;;;;5066693;28;20474;-80
2023/12/10 13:00:50;;;;;;;8.98;2.45;;;;;;;;;;5066721;28;20405;-80
2023/12/10 13:03:16;;;;;;;9.00;2.50;;;;;;;;;;5066441;28;20882;-80
2023/12/10 13:05:42;;;;;;;9.98;2.50;;;;;;;;;;5064892;28;20376;-80
2023/12/10 13:08:09;;;;;;;9.43;2.67;;;;;;;;;;5066462;28;20377;-80
2023/12/10 13:10:35;;;;;;;8.05;2.60;;;;;;;;;;5049542;28;20387;-80
2023/12/10 13:13:01;;;;;;;10.93;2.70;;;;;;;;;;5068720;28;20392;-80
2023/12/10 13:15:27;;;;;;;7.55;2.25;;;;;;;;;;5069016;28;20388;-80
2023/12/10 13:17:53;;;;;;;7.05;2.45;;;;;;;;;;5068901;28;20381;-80
2023/12/10 13:20:19;;;;;;;7.03;2.00;;;;;;;;;;5068587;28;20835;-80
2023/12/10 13:22:45;;;;;;;8.52;2.15;;;;;;;;;;5066562;28;20384;-80
2023/12/10 13:25:11;;;;;;;6.03;2.13;;;;;;;;;;5067824;28;20407;-80
2023/12/10 13:27:37;;;;;;;9.05;2.63;;;;;;;;;;5067641;28;20847;-80
2023/12/10 13:30:03;;;;;;;11.13;2.78;;;;;;;;;;5068683;28;20394;-81
2023/12/10 13:32:29;;;;;;;9.30;2.83;;;;;;;;;;5066166;28;20389;-80
2023/12/10 13:34:58;;;;;;;10.48;2.75;;;;;;;;;;5070237;28;20787;-80
2023/12/10 13:37:24;;;;;;;8.68;2.83;;;;;;;;;;5068092;28;20792;-80
2023/12/10 13:39:50;;;;;;;7.72;2.83;;;;;;;;;;5068895;28;20937;-80
2023/12/10 13:42:16;;;;;;;8.75;2.60;;;;;;;;;;5066927;28;20393;-80
2023/12/10 13:44:43;;;;;;;5.15;2.05;;;;;;;;;;5067592;28;20383;-80
2023/12/10 13:47:12;;;;;;;7.90;2.28;;;;;;;;;;5064804;28;20469;-81
2023/12/10 13:49:38;;;;;;;10.40;2.27;;;;;;;;;;5067653;28;20885;-81
2023/12/10 13:52:04;;;;;;;10.10;2.38;;;;;;;;;;5067717;28;20414;-81
2023/12/10 13:54:30;;;;;;;7.32;2.00;;;;;;;;;;5066487;28;20423;-80
2023/12/10 13:56:56;;;;;;;22.77;10.80;;;;;;;;;;5065904;28;20723;-80
2023/12/10 13:59:22;;;;;;;8.88;2.25;;;;;;;;;;5067579;28;20468;-80
2023/12/10 14:01:48;;;;;;;9.57;2.08;;;;;;;;;;5066006;28;20378;-80
2023/12/10 14:04:14;;;;;;;8.43;2.13;;;;;;;;;;5065930;28;20881;-80
2023/12/10 14:06:40;;;;;;;7.28;2.20;;;;;;;;;;5069766;28;20404;-80
2023/12/10 14:09:06;;;;;;;8.60;2.40;;;;;;;;;;5067248;28;20845;-80
2023/12/10 14:11:33;;;;;;;11.00;3.20;;;;;;;;;;5066537;28;20384;-80
2023/12/10 14:13:59;;;;;;;8.77;3.10;;;;;;;;;;5065064;28;20371;-81
2023/12/10 14:16:29;;;;;;;8.55;2.97;;;;;;;;;;5064720;28;20843;-81
2023/12/10 14:18:55;;;;;;;8.18;2.38;;;;;;;;;;5065691;28;20398;-81
2023/12/10 14:21:24;;;;;;;10.23;2.67;;;;;;;;;;5067038;28;20819;-81
2023/12/10 14:23:51;;;;;;;9.48;2.53;;;;;;;;;;5066078;28;20772;-81
2023/12/10 14:26:17;;;;;;;8.32;2.53;;;;;;;;;;5066833;28;20376;-81
2023/12/10 14:28:43;;;;;;;8.05;2.55;;;;;;;;;;5067111;28;20377;-82
2023/12/10 14:31:08;;;;;;;9.48;2.58;;;;;;;;;;5064484;28;20732;-82